Home   Weather   USA   Savannah   Past weeks
Flag for USA

Past Weather in Savannah, Georgia, USA — August 2021

Currently: 80 °F. Passing clouds. (Weather station: Hunter U. S. Army Airfield, USA). See more current weather

August 2021 Weather in Savannah — Graph

°F

High & Low Weather Summary for August 2021

 TemperatureHumidityPressure
High95 °F (Aug 1, 4:56 pm)94% (Aug 2, 6:31 pm)30.20 "Hg (Aug 2, 6:31 pm)
Low71 °F (Aug 30, 6:56 am)53% (Aug 1, 2:56 pm)29.78 "Hg (Aug 31, 6:56 pm)
Average80 °F81%30.02 "Hg
* Reported Aug 1 12:56 am — Aug 31 11:56 pm, Savannah. Weather by CustomWeather, © 2021

Note: Actual official high and low records may vary slightly from our data, if they occured in-between our weather recording intervals... More about our weather records

Savannah Weather History for August 1, 2021

Scroll right to see more
 ConditionsComfort  
Time TempWeatherWind HumidityBarometerVisibility
12:56 am
Sun, Aug 1
83 °FClear.8 mph80%29.92 "Hg10 mi
1:56 am82 °FClear.8 mph80%29.90 "Hg10 mi
2:56 am81 °FClear.10 mph84%29.90 "Hg10 mi
3:56 am80 °FPassing clouds.9 mph83%29.92 "Hg10 mi
4:56 am78 °FPassing clouds.6 mph81%29.93 "Hg10 mi
5:56 am78 °FClear.7 mph79%29.93 "Hg10 mi
6:56 am77 °FSunny.10 mph83%29.94 "Hg10 mi
7:56 am78 °FSunny.9 mph82%29.93 "Hg10 mi
8:56 am82 °FSunny.8 mph76%29.92 "Hg10 mi
9:56 am85 °FSunny.7 mph72%29.93 "Hg10 mi
10:56 am88 °FSunny.10 mph67%29.93 "Hg10 mi
11:56 am91 °FPassing clouds.8 mph63%29.94 "Hg10 mi
12:56 pm93 °FScattered clouds.12 mph59%29.94 "Hg10 mi
1:56 pm94 °FScattered clouds.12 mph58%29.93 "Hg10 mi
2:56 pm95 °FScattered clouds.13 mph53%29.92 "Hg10 mi
3:56 pm95 °FScattered clouds.9 mph53%29.89 "Hg10 mi
4:56 pm95 °FSunny.5 mph54%29.88 "Hg10 mi
5:56 pm91 °FThundershowers. Scattered clouds.9 mph60%29.88 "Hg10 mi
6:40 pm84 °FScattered clouds.17 mph70%29.89 "Hg10 mi
6:56 pm83 °FPassing clouds.14 mph73%29.91 "Hg10 mi
8:56 pm79 °FPassing clouds.8 mph80%29.91 "Hg10 mi
9:56 pm78 °FClear.8 mph79%29.94 "Hg10 mi
10:56 pm77 °FPassing clouds.6 mph82%29.95 "Hg10 mi
11:56 pm77 °FPassing clouds.9 mph83%29.96 "Hg10 mi
Weather by CustomWeather, © 2021

See weather overview